sensor_id;sensor_type;location;lat;lon;timestamp;pressure;altitude;pressure_sealevel;temperature;humidity
61870;BME280;47810;42.264;23.826;2023-03-21T00:00:13;93733.28;;;9.78;55.14
61870;BME280;47810;42.264;23.826;2023-03-21T00:02:56;93737.72;;;9.77;55.73
61870;BME280;47810;42.264;23.826;2023-03-21T00:05:22;93724.66;;;9.76;55.35
61870;BME280;47810;42.264;23.826;2023-03-21T00:07:47;93726.34;;;9.77;55.39
61870;BME280;47810;42.264;23.826;2023-03-21T00:10:13;93732.91;;;9.84;55.88
61870;BME280;47810;42.264;23.826;2023-03-21T00:12:38;93724.84;;;9.73;56.01
61870;BME280;47810;42.264;23.826;2023-03-21T00:15:04;93714.84;;;9.78;56.22
61870;BME280;47810;42.264;23.826;2023-03-21T00:17:31;93712.44;;;9.88;55.95
61870;BME280;47810;42.264;23.826;2023-03-21T00:19:57;93713.16;;;10.04;55.14
61870;BME280;47810;42.264;23.826;2023-03-21T00:22:23;93707.19;;;9.88;55.26
61870;BME280;47810;42.264;23.826;2023-03-21T00:24:49;93717.09;;;9.84;55.80
61870;BME280;47810;42.264;23.826;2023-03-21T00:27:16;93705.25;;;9.77;57.20
61870;BME280;47810;42.264;23.826;2023-03-21T00:29:43;93699.97;;;9.77;57.45
61870;BME280;47810;42.264;23.826;2023-03-21T00:32:09;93696.78;;;9.72;56.36
61870;BME280;47810;42.264;23.826;2023-03-21T00:34:34;93688.28;;;9.81;56.66
61870;BME280;47810;42.264;23.826;2023-03-21T00:37:02;93683.16;;;9.92;56.64
61870;BME280;47810;42.264;23.826;2023-03-21T00:39:28;93685.44;;;9.84;56.76
61870;BME280;47810;42.264;23.826;2023-03-21T00:41:53;93691.44;;;9.59;57.63
61870;BME280;47810;42.264;23.826;2023-03-21T00:44:19;93682.63;;;9.60;57.17
61870;BME280;47810;42.264;23.826;2023-03-21T00:46:45;93674.59;;;9.62;57.39
61870;BME280;47810;42.264;23.826;2023-03-21T00:49:11;93684.31;;;9.61;58.25
61870;BME280;47810;42.264;23.826;2023-03-21T00:51:36;93675.09;;;9.81;56.99
61870;BME280;47810;42.264;23.826;2023-03-21T00:54:02;93671.31;;;9.85;56.13
61870;BME280;47810;42.264;23.826;2023-03-21T00:56:30;93666.19;;;9.69;57.06
61870;BME280;47810;42.264;23.826;2023-03-21T00:58:55;93665.94;;;9.60;57.88
61870;BME280;47810;42.264;23.826;2023-03-21T01:01:21;93664.38;;;9.57;58.68
61870;BME280;47810;42.264;23.826;2023-03-21T01:03:46;93655.41;;;9.60;57.89
61870;BME280;47810;42.264;23.826;2023-03-21T01:06:30;93651.84;;;9.61;57.42
61870;BME280;47810;42.264;23.826;2023-03-21T01:08:55;93658.53;;;9.79;57.10
61870;BME280;47810;42.264;23.826;2023-03-21T01:11:22;93656.31;;;9.73;56.56
61870;BME280;47810;42.264;23.826;2023-03-21T01:13:48;93656.28;;;9.46;57.18
61870;BME280;47810;42.264;23.826;2023-03-21T01:16:14;93652.09;;;9.29;58.60
61870;BME280;47810;42.264;23.826;2023-03-21T01:18:40;93646.91;;;9.27;59.15
61870;BME280;47810;42.264;23.826;2023-03-21T01:21:11;93648.13;;;9.36;58.84
61870;BME280;47810;42.264;23.826;2023-03-21T01:23:37;93656.84;;;9.09;59.29
61870;BME280;47810;42.264;23.826;2023-03-21T01:26:03;93653.28;;;8.82;60.70
61870;BME280;47810;42.264;23.826;2023-03-21T01:28:29;93656.69;;;8.70;61.41
61870;BME280;47810;42.264;23.826;2023-03-21T01:30:55;93657.34;;;8.73;61.22
61870;BME280;47810;42.264;23.826;2023-03-21T01:33:20;93665.13;;;8.89;60.71
61870;BME280;47810;42.264;23.826;2023-03-21T01:35:46;93660.72;;;8.90;60.16
61870;BME280;47810;42.264;23.826;2023-03-21T01:38:12;93662.50;;;9.03;59.61
61870;BME280;47810;42.264;23.826;2023-03-21T01:40:38;93670.59;;;9.00;59.21
61870;BME280;47810;42.264;23.826;2023-03-21T01:43:08;93671.91;;;8.93;59.19
61870;BME280;47810;42.264;23.826;2023-03-21T01:48:25;93675.09;;;8.98;58.89
61870;BME280;47810;42.264;23.826;2023-03-21T01:50:51;93676.41;;;8.91;58.81
61870;BME280;47810;42.264;23.826;2023-03-21T01:53:20;93669.94;;;8.68;59.72
61870;BME280;47810;42.264;23.826;2023-03-21T01:55:47;93669.47;;;8.76;58.99
61870;BME280;47810;42.264;23.826;2023-03-21T01:58:13;93676.81;;;8.71;59.29
61870;BME280;47810;42.264;23.826;2023-03-21T02:00:43;93668.72;;;8.59;59.20
61870;BME280;47810;42.264;23.826;2023-03-21T02:03:09;93666.91;;;8.46;59.84
61870;BME280;47810;42.264;23.826;2023-03-21T02:05:40;93671.34;;;8.45;59.69
61870;BME280;47810;42.264;23.826;2023-03-21T02:08:08;93668.91;;;8.42;59.76
61870;BME280;47810;42.264;23.826;2023-03-21T02:10:34;93661.38;;;8.50;59.13
61870;BME280;47810;42.264;23.826;2023-03-21T02:13:03;93658.47;;;8.25;60.04
61870;BME280;47810;42.264;23.826;2023-03-21T02:15:37;93659.84;;;8.32;59.88
61870;BME280;47810;42.264;23.826;2023-03-21T02:18:09;93656.44;;;8.30;59.71
61870;BME280;47810;42.264;23.826;2023-03-21T02:31:50;93666.53;;;8.07;60.41
61870;BME280;47810;42.264;23.826;2023-03-21T02:34:42;93667.88;;;8.14;60.47
61870;BME280;47810;42.264;23.826;2023-03-21T02:39:40;93661.25;;;7.93;60.79
61870;BME280;47810;42.264;23.826;2023-03-21T02:50:18;93653.59;;;7.74;61.13
61870;BME280;47810;42.264;23.826;2023-03-21T02:52:46;93653.84;;;7.69;61.37
61870;BME280;47810;42.264;23.826;2023-03-21T02:55:14;93645.59;;;7.76;60.96
61870;BME280;47810;42.264;23.826;2023-03-21T02:57:41;93648.28;;;7.90;60.62
61870;BME280;47810;42.264;23.826;2023-03-21T03:00:08;93653.13;;;7.52;61.72
61870;BME280;47810;42.264;23.826;2023-03-21T03:02:37;93654.66;;;7.40;62.19
61870;BME280;47810;42.264;23.826;2023-03-21T03:05:12;93645.16;;;7.21;62.44
61870;BME280;47810;42.264;23.826;2023-03-21T03:07:42;93656.34;;;7.41;61.74
61870;BME280;47810;42.264;23.826;2023-03-21T03:13:05;93648.88;;;7.49;61.18
61870;BME280;47810;42.264;23.826;2023-03-21T03:15:41;93655.00;;;7.18;61.81
61870;BME280;47810;42.264;23.826;2023-03-21T03:18:13;93658.13;;;7.40;61.06
61870;BME280;47810;42.264;23.826;2023-03-21T03:23:34;93650.50;;;7.36;60.97
61870;BME280;47810;42.264;23.826;2023-03-21T03:26:05;93652.97;;;7.39;60.74
61870;BME280;47810;42.264;23.826;2023-03-21T03:28:40;93658.13;;;7.24;60.96
61870;BME280;47810;42.264;23.826;2023-03-21T03:31:07;93655.66;;;7.37;60.57
61870;BME280;47810;42.264;23.826;2023-03-21T03:33:37;93646.16;;;7.51;59.77
61870;BME280;47810;42.264;23.826;2023-03-21T03:36:06;93641.75;;;7.51;59.67
61870;BME280;47810;42.264;23.826;2023-03-21T03:38:34;93647.44;;;7.43;60.05
61870;BME280;47810;42.264;23.826;2023-03-21T03:41:01;93640.84;;;7.52;59.63
61870;BME280;47810;42.264;23.826;2023-03-21T03:43:50;93640.91;;;7.35;59.98
61870;BME280;47810;42.264;23.826;2023-03-21T03:46:18;93640.41;;;7.44;60.13
61870;BME280;47810;42.264;23.826;2023-03-21T03:51:34;93638.91;;;7.40;60.00
61870;BME280;47810;42.264;23.826;2023-03-21T03:54:11;93635.66;;;7.51;59.74
61870;BME280;47810;42.264;23.826;2023-03-21T03:56:38;93639.50;;;7.45;60.15
61870;BME280;47810;42.264;23.826;2023-03-21T03:59:04;93637.91;;;7.27;60.72
61870;BME280;47810;42.264;23.826;2023-03-21T04:01:32;93632.66;;;7.27;60.65
61870;BME280;47810;42.264;23.826;2023-03-21T04:03:57;93635.66;;;7.35;60.43
61870;BME280;47810;42.264;23.826;2023-03-21T04:06:24;93633.47;;;7.27;60.44
61870;BME280;47810;42.264;23.826;2023-03-21T04:08:50;93638.22;;;7.36;60.35
61870;BME280;47810;42.264;23.826;2023-03-21T04:11:16;93644.31;;;7.37;60.42
61870;BME280;47810;42.264;23.826;2023-03-21T04:13:41;93633.53;;;7.41;60.49
61870;BME280;47810;42.264;23.826;2023-03-21T04:16:08;93636.16;;;7.41;61.18
61870;BME280;47810;42.264;23.826;2023-03-21T04:18:33;93645.00;;;7.40;61.45
61870;BME280;47810;42.264;23.826;2023-03-21T04:20:59;93643.63;;;7.49;61.16
61870;BME280;47810;42.264;23.826;2023-03-21T04:23:25;93639.72;;;7.56;61.29
61870;BME280;47810;42.264;23.826;2023-03-21T04:25:51;93642.97;;;7.30;61.84
61870;BME280;47810;42.264;23.826;2023-03-21T04:28:16;93653.31;;;7.33;63.08
61870;BME280;47810;42.264;23.826;2023-03-21T04:30:42;93644.44;;;7.19;63.00
61870;BME280;47810;42.264;23.826;2023-03-21T04:33:07;93642.81;;;7.33;62.41
61870;BME280;47810;42.264;23.826;2023-03-21T04:35:33;93640.53;;;7.27;63.00
61870;BME280;47810;42.264;23.826;2023-03-21T04:38:00;93641.63;;;7.22;62.83
61870;BME280;47810;42.264;23.826;2023-03-21T04:40:26;93632.81;;;7.08;63.85
61870;BME280;47810;42.264;23.826;2023-03-21T04:42:51;93638.22;;;7.36;62.83
61870;BME280;47810;42.264;23.826;2023-03-21T04:45:17;93637.72;;;7.30;62.98
61870;BME280;47810;42.264;23.826;2023-03-21T04:47:43;93627.63;;;7.38;62.85
61870;BME280;47810;42.264;23.826;2023-03-21T04:50:09;93630.06;;;7.41;62.21
61870;BME280;47810;42.264;23.826;2023-03-21T04:52:35;93634.25;;;7.45;62.97
61870;BME280;47810;42.264;23.826;2023-03-21T04:55:00;93631.97;;;7.39;62.03
61870;BME280;47810;42.264;23.826;2023-03-21T04:57:26;93636.72;;;7.16;63.39
61870;BME280;47810;42.264;23.826;2023-03-21T04:59:51;93631.63;;;7.13;63.62
61870;BME280;47810;42.264;23.826;2023-03-21T05:02:17;93638.56;;;7.14;64.62
61870;BME280;47810;42.264;23.826;2023-03-21T05:04:43;93634.31;;;7.28;63.95
61870;BME280;47810;42.264;23.826;2023-03-21T05:07:10;93641.88;;;7.34;63.42
61870;BME280;47810;42.264;23.826;2023-03-21T05:09:36;93632.03;;;7.37;63.19
61870;BME280;47810;42.264;23.826;2023-03-21T05:12:01;93639.06;;;7.37;64.03
61870;BME280;47810;42.264;23.826;2023-03-21T05:14:27;93643.53;;;7.51;63.17
61870;BME280;47810;42.264;23.826;2023-03-21T05:16:53;93637.19;;;7.55;61.86
61870;BME280;47810;42.264;23.826;2023-03-21T05:19:27;93634.28;;;7.59;61.95
61870;BME280;47810;42.264;23.826;2023-03-21T05:22:09;93644.09;;;7.72;61.17
61870;BME280;47810;42.264;23.826;2023-03-21T05:24:35;93637.53;;;7.79;61.57
61870;BME280;47810;42.264;23.826;2023-03-21T05:27:06;93632.59;;;7.88;60.83
61870;BME280;47810;42.264;23.826;2023-03-21T05:29:33;93631.66;;;7.89;60.81
61870;BME280;47810;42.264;23.826;2023-03-21T05:32:14;93628.19;;;7.89;60.68
61870;BME280;47810;42.264;23.826;2023-03-21T05:34:39;93631.09;;;7.99;60.93
61870;BME280;47810;42.264;23.826;2023-03-21T05:37:05;93618.44;;;7.91;60.75
61870;BME280;47810;42.264;23.826;2023-03-21T05:39:31;93629.13;;;8.02;60.80
61870;BME280;47810;42.264;23.826;2023-03-21T05:41:56;93626.91;;;7.96;60.78
61870;BME280;47810;42.264;23.826;2023-03-21T05:44:22;93634.63;;;8.13;60.09
61870;BME280;47810;42.264;23.826;2023-03-21T05:46:47;93630.78;;;8.19;60.01
61870;BME280;47810;42.264;23.826;2023-03-21T05:49:13;93632.94;;;8.12;60.05
61870;BME280;47810;42.264;23.826;2023-03-21T05:51:38;93628.72;;;8.10;60.61
61870;BME280;47810;42.264;23.826;2023-03-21T05:54:04;93636.13;;;8.17;60.41
61870;BME280;47810;42.264;23.826;2023-03-21T05:56:30;93637.63;;;8.22;60.89
61870;BME280;47810;42.264;23.826;2023-03-21T05:59:01;93635.56;;;8.27;61.50
61870;BME280;47810;42.264;23.826;2023-03-21T06:01:27;93636.06;;;8.33;61.57
61870;BME280;47810;42.264;23.826;2023-03-21T06:03:52;93646.53;;;8.49;61.31
61870;BME280;47810;42.264;23.826;2023-03-21T06:06:18;93640.81;;;8.71;61.01
61870;BME280;47810;42.264;23.826;2023-03-21T06:08:43;93640.50;;;8.76;60.11
61870;BME280;47810;42.264;23.826;2023-03-21T06:11:18;93644.84;;;8.77;59.88
61870;BME280;47810;42.264;23.826;2023-03-21T06:13:44;93635.25;;;8.76;60.14
61870;BME280;47810;42.264;23.826;2023-03-21T06:16:10;93634.31;;;8.77;60.17
61870;BME280;47810;42.264;23.826;2023-03-21T06:18:36;93638.53;;;8.79;60.24
61870;BME280;47810;42.264;23.826;2023-03-21T06:21:01;93637.69;;;8.79;60.77
61870;BME280;47810;42.264;23.826;2023-03-21T06:23:27;93638.81;;;8.89;60.73
61870;BME280;47810;42.264;23.826;2023-03-21T06:25:52;93644.56;;;8.81;61.76
61870;BME280;47810;42.264;23.826;2023-03-21T06:28:18;93639.41;;;8.80;61.79
61870;BME280;47810;42.264;23.826;2023-03-21T06:30:43;93639.78;;;8.74;60.90
61870;BME280;47810;42.264;23.826;2023-03-21T06:33:09;93633.00;;;8.84;61.94
61870;BME280;47810;42.264;23.826;2023-03-21T06:35:35;93642.91;;;9.22;60.39
61870;BME280;47810;42.264;23.826;2023-03-21T06:38:00;93646.72;;;9.45;59.82
61870;BME280;47810;42.264;23.826;2023-03-21T06:40:26;93634.47;;;9.44;59.59
61870;BME280;47810;42.264;23.826;2023-03-21T06:42:51;93638.69;;;9.46;59.92
61870;BME280;47810;42.264;23.826;2023-03-21T06:45:17;93641.63;;;9.42;59.92
61870;BME280;47810;42.264;23.826;2023-03-21T06:47:43;93634.47;;;9.44;60.13
61870;BME280;47810;42.264;23.826;2023-03-21T06:50:08;93638.50;;;9.49;60.16
61870;BME280;47810;42.264;23.826;2023-03-21T06:52:36;93637.50;;;9.65;60.14
61870;BME280;47810;42.264;23.826;2023-03-21T06:55:04;93630.63;;;9.89;58.67
61870;BME280;47810;42.264;23.826;2023-03-21T06:57:29;93638.66;;;10.00;58.70
61870;BME280;47810;42.264;23.826;2023-03-21T06:59:56;93639.72;;;10.11;58.20
61870;BME280;47810;42.264;23.826;2023-03-21T07:02:22;93636.66;;;10.17;57.92
61870;BME280;47810;42.264;23.826;2023-03-21T07:04:47;93634.84;;;10.32;58.20
61870;BME280;47810;42.264;23.826;2023-03-21T07:07:13;93637.50;;;10.57;56.03
61870;BME280;47810;42.264;23.826;2023-03-21T07:09:39;93636.22;;;10.63;56.37
61870;BME280;47810;42.264;23.826;2023-03-21T07:12:05;93634.44;;;10.76;55.55
61870;BME280;47810;42.264;23.826;2023-03-21T07:14:30;93640.41;;;10.91;54.33
61870;BME280;47810;42.264;23.826;2023-03-21T07:16:56;93638.94;;;11.00;54.52
61870;BME280;47810;42.264;23.826;2023-03-21T07:19:21;93638.06;;;11.12;54.26
61870;BME280;47810;42.264;23.826;2023-03-21T07:21:47;93639.53;;;11.16;54.28
61870;BME280;47810;42.264;23.826;2023-03-21T07:24:12;93634.03;;;11.19;55.08
61870;BME280;47810;42.264;23.826;2023-03-21T07:26:38;93635.50;;;11.23;56.44
61870;BME280;47810;42.264;23.826;2023-03-21T07:29:03;93639.22;;;11.21;56.89
61870;BME280;47810;42.264;23.826;2023-03-21T07:31:29;93637.19;;;11.24;57.59
61870;BME280;47810;42.264;23.826;2023-03-21T07:33:54;93630.38;;;11.33;59.94
61870;BME280;47810;42.264;23.826;2023-03-21T07:36:20;93616.91;;;11.49;57.68
61870;BME280;47810;42.264;23.826;2023-03-21T07:38:46;93619.19;;;11.66;55.68
61870;BME280;47810;42.264;23.826;2023-03-21T07:41:11;93616.81;;;11.50;56.57
61870;BME280;47810;42.264;23.826;2023-03-21T07:43:37;93612.13;;;11.54;57.11
61870;BME280;47810;42.264;23.826;2023-03-21T07:46:03;93601.56;;;11.54;57.21
61870;BME280;47810;42.264;23.826;2023-03-21T07:48:29;93602.56;;;11.64;57.40
61870;BME280;47810;42.264;23.826;2023-03-21T07:50:55;93601.91;;;11.73;56.71
61870;BME280;47810;42.264;23.826;2023-03-21T07:53:20;93607.78;;;11.89;56.79
61870;BME280;47810;42.264;23.826;2023-03-21T07:55:52;93606.47;;;11.95;56.75
61870;BME280;47810;42.264;23.826;2023-03-21T07:58:19;93616.25;;;12.06;57.06
61870;BME280;47810;42.264;23.826;2023-03-21T08:00:46;93616.38;;;12.04;56.72
61870;BME280;47810;42.264;23.826;2023-03-21T08:03:11;93610.47;;;12.01;56.96
61870;BME280;47810;42.264;23.826;2023-03-21T08:05:37;93617.31;;;12.03;57.24
61870;BME280;47810;42.264;23.826;2023-03-21T08:08:03;93620.34;;;12.10;57.34
61870;BME280;47810;42.264;23.826;2023-03-21T08:10:29;93611.47;;;12.11;57.38
61870;BME280;47810;42.264;23.826;2023-03-21T08:12:55;93619.41;;;12.22;57.52
61870;BME280;47810;42.264;23.826;2023-03-21T08:15:20;93619.41;;;12.22;57.65
61870;BME280;47810;42.264;23.826;2023-03-21T08:17:46;93623.28;;;12.29;58.35
61870;BME280;47810;42.264;23.826;2023-03-21T08:20:18;93624.47;;;12.14;57.29
61870;BME280;47810;42.264;23.826;2023-03-21T08:22:45;93624.25;;;12.28;57.46
61870;BME280;47810;42.264;23.826;2023-03-21T08:25:13;93630.69;;;12.13;57.38
61870;BME280;47810;42.264;23.826;2023-03-21T08:27:40;93628.88;;;12.02;58.43
61870;BME280;47810;42.264;23.826;2023-03-21T08:30:07;93632.63;;;12.11;57.93
61870;BME280;47810;42.264;23.826;2023-03-21T08:32:33;93631.22;;;12.18;58.23
61870;BME280;47810;42.264;23.826;2023-03-21T08:34:59;93631.44;;;12.15;56.87
61870;BME280;47810;42.264;23.826;2023-03-21T08:37:25;93635.88;;;12.61;55.72
61870;BME280;47810;42.264;23.826;2023-03-21T08:39:51;93635.13;;;12.48;55.26
61870;BME280;47810;42.264;23.826;2023-03-21T08:42:17;93635.28;;;12.57;55.83
61870;BME280;47810;42.264;23.826;2023-03-21T08:44:42;93639.53;;;12.82;55.78
61870;BME280;47810;42.264;23.826;2023-03-21T08:47:08;93633.63;;;13.01;54.31
61870;BME280;47810;42.264;23.826;2023-03-21T08:49:34;93628.94;;;13.05;53.80
61870;BME280;47810;42.264;23.826;2023-03-21T08:51:59;93625.06;;;13.09;53.32
61870;BME280;47810;42.264;23.826;2023-03-21T08:54:25;93626.78;;;13.10;54.66
61870;BME280;47810;42.264;23.826;2023-03-21T08:56:50;93629.09;;;13.26;54.40
61870;BME280;47810;42.264;23.826;2023-03-21T08:59:16;93631.50;;;13.29;54.94
61870;BME280;47810;42.264;23.826;2023-03-21T09:01:41;93624.34;;;13.41;54.68
61870;BME280;47810;42.264;23.826;2023-03-21T09:04:07;93620.72;;;13.53;54.99
61870;BME280;47810;42.264;23.826;2023-03-21T09:06:37;93620.25;;;13.48;55.19
61870;BME280;47810;42.264;23.826;2023-03-21T09:09:05;93620.72;;;13.64;55.80
61870;BME280;47810;42.264;23.826;2023-03-21T09:11:32;93614.63;;;13.73;55.24
61870;BME280;47810;42.264;23.826;2023-03-21T09:13:58;93621.41;;;13.78;53.86
61870;BME280;47810;42.264;23.826;2023-03-21T09:16:23;93615.84;;;13.81;53.71
61870;BME280;47810;42.264;23.826;2023-03-21T09:18:49;93607.06;;;14.01;53.58
61870;BME280;47810;42.264;23.826;2023-03-21T09:21:20;93602.69;;;14.11;54.10
61870;BME280;47810;42.264;23.826;2023-03-21T09:23:47;93603.00;;;14.18;52.34
61870;BME280;47810;42.264;23.826;2023-03-21T09:26:14;93608.38;;;14.28;52.59
61870;BME280;47810;42.264;23.826;2023-03-21T09:28:40;93603.97;;;14.38;51.30
61870;BME280;47810;42.264;23.826;2023-03-21T09:31:07;93607.44;;;14.29;50.85
61870;BME280;47810;42.264;23.826;2023-03-21T09:33:35;93599.72;;;14.26;51.48
61870;BME280;47810;42.264;23.826;2023-03-21T09:36:00;93595.06;;;14.39;52.16
61870;BME280;47810;42.264;23.826;2023-03-21T09:38:27;93591.25;;;14.53;51.44
61870;BME280;47810;42.264;23.826;2023-03-21T09:48:40;93574.06;;;14.78;49.23
61870;BME280;47810;42.264;23.826;2023-03-21T09:51:08;93579.66;;;14.75;47.78
61870;BME280;47810;42.264;23.826;2023-03-21T09:53:35;93582.56;;;14.72;48.89
61870;BME280;47810;42.264;23.826;2023-03-21T09:56:04;93577.25;;;14.72;48.15
61870;BME280;47810;42.264;23.826;2023-03-21T09:58:53;93584.44;;;14.39;46.87
61870;BME280;47810;42.264;23.826;2023-03-21T10:01:18;93581.59;;;14.73;47.83
61870;BME280;47810;42.264;23.826;2023-03-21T10:03:51;93570.50;;;14.98;48.22
61870;BME280;47810;42.264;23.826;2023-03-21T10:06:18;93554.94;;;15.24;47.07
61870;BME280;47810;42.264;23.826;2023-03-21T10:08:46;93561.16;;;15.44;46.82
61870;BME280;47810;42.264;23.826;2023-03-21T10:11:13;93560.97;;;15.86;46.49
61870;BME280;47810;42.264;23.826;2023-03-21T10:16:27;93554.78;;;16.34;43.93
61870;BME280;47810;42.264;23.826;2023-03-21T10:18:53;93550.28;;;16.44;41.31
61870;BME280;47810;42.264;23.826;2023-03-21T10:21:23;93551.13;;;16.35;42.87
61870;BME280;47810;42.264;23.826;2023-03-21T10:23:53;93536.50;;;16.49;40.90
61870;BME280;47810;42.264;23.826;2023-03-21T10:26:19;93539.00;;;16.70;41.27
61870;BME280;47810;42.264;23.826;2023-03-21T10:28:46;93532.72;;;17.08;42.10
61870;BME280;47810;42.264;23.826;2023-03-21T10:31:19;93543.03;;;17.49;40.91
61870;BME280;47810;42.264;23.826;2023-03-21T10:33:47;93531.34;;;17.77;39.42
61870;BME280;47810;42.264;23.826;2023-03-21T10:36:17;93524.50;;;17.92;39.64
61870;BME280;47810;42.264;23.826;2023-03-21T10:38:59;93534.03;;;17.77;37.76
61870;BME280;47810;42.264;23.826;2023-03-21T10:41:25;93520.53;;;17.79;39.41
61870;BME280;47810;42.264;23.826;2023-03-21T10:44:02;93514.34;;;17.96;39.54
61870;BME280;47810;42.264;23.826;2023-03-21T10:46:28;93517.78;;;18.06;39.20
61870;BME280;47810;42.264;23.826;2023-03-21T10:48:54;93510.97;;;18.12;37.98
61870;BME280;47810;42.264;23.826;2023-03-21T10:51:20;93509.63;;;18.08;38.22
61870;BME280;47810;42.264;23.826;2023-03-21T10:53:53;93508.22;;;18.04;37.78
61870;BME280;47810;42.264;23.826;2023-03-21T10:56:21;93507.31;;;18.13;38.11
61870;BME280;47810;42.264;23.826;2023-03-21T10:58:47;93503.00;;;18.20;37.68
61870;BME280;47810;42.264;23.826;2023-03-21T11:01:20;93502.25;;;18.10;39.50
61870;BME280;47810;42.264;23.826;2023-03-21T11:03:53;93492.97;;;18.14;39.43
61870;BME280;47810;42.264;23.826;2023-03-21T11:09:05;93496.13;;;17.91;39.81
61870;BME280;47810;42.264;23.826;2023-03-21T11:11:39;93492.34;;;17.84;40.82
61870;BME280;47810;42.264;23.826;2023-03-21T11:14:06;93487.72;;;18.04;41.38
61870;BME280;47810;42.264;23.826;2023-03-21T11:19:10;93472.53;;;18.05;39.95
61870;BME280;47810;42.264;23.826;2023-03-21T11:21:36;93474.88;;;18.08;40.19
61870;BME280;47810;42.264;23.826;2023-03-21T11:24:02;93484.03;;;17.87;39.95
61870;BME280;47810;42.264;23.826;2023-03-21T11:26:29;93482.56;;;17.75;40.54
61870;BME280;47810;42.264;23.826;2023-03-21T11:28:56;93490.50;;;17.67;40.28
61870;BME280;47810;42.264;23.826;2023-03-21T11:31:22;93486.78;;;17.78;40.53
61870;BME280;47810;42.264;23.826;2023-03-21T11:34:01;93479.53;;;17.88;40.88
61870;BME280;47810;42.264;23.826;2023-03-21T11:36:31;93474.19;;;18.06;39.46
61870;BME280;47810;42.264;23.826;2023-03-21T11:39:12;93467.34;;;18.29;37.07
61870;BME280;47810;42.264;23.826;2023-03-21T11:41:39;93461.75;;;18.67;36.62
61870;BME280;47810;42.264;23.826;2023-03-21T11:44:08;93466.75;;;18.88;35.54
61870;BME280;47810;42.264;23.826;2023-03-21T11:46:47;93461.47;;;19.04;35.28
61870;BME280;47810;42.264;23.826;2023-03-21T11:49:13;93446.75;;;19.08;34.87
61870;BME280;47810;42.264;23.826;2023-03-21T11:56:43;93440.41;;;19.09;34.20
61870;BME280;47810;42.264;23.826;2023-03-21T11:59:16;93446.19;;;18.96;35.32
61870;BME280;47810;42.264;23.826;2023-03-21T12:06:45;93438.41;;;19.11;33.34
61870;BME280;47810;42.264;23.826;2023-03-21T12:14:26;93439.00;;;18.89;34.88
61870;BME280;47810;42.264;23.826;2023-03-21T12:16:57;93434.78;;;18.86;35.72
61870;BME280;47810;42.264;23.826;2023-03-21T12:19:32;93434.16;;;18.92;36.18
61870;BME280;47810;42.264;23.826;2023-03-21T12:24:36;93422.94;;;18.89;35.85
61870;BME280;47810;42.264;23.826;2023-03-21T12:39:47;93415.75;;;19.56;35.51
61870;BME280;47810;42.264;23.826;2023-03-21T12:44:51;93412.06;;;19.49;34.21
61870;BME280;47810;42.264;23.826;2023-03-21T12:47:23;93412.72;;;19.51;35.74
61870;BME280;47810;42.264;23.826;2023-03-21T12:49:50;93411.69;;;19.36;35.55
61870;BME280;47810;42.264;23.826;2023-03-21T12:52:31;93408.66;;;19.22;36.13
61870;BME280;47810;42.264;23.826;2023-03-21T12:57:31;93401.25;;;19.08;35.73
61870;BME280;47810;42.264;23.826;2023-03-21T13:02:30;93401.06;;;19.01;34.95
61870;BME280;47810;42.264;23.826;2023-03-21T13:07:36;93395.94;;;18.74;36.58
61870;BME280;47810;42.264;23.826;2023-03-21T13:10:11;93389.28;;;18.78;36.59
61870;BME280;47810;42.264;23.826;2023-03-21T13:23:10;93388.66;;;18.58;35.66
61870;BME280;47810;42.264;23.826;2023-03-21T13:25:45;93385.97;;;18.50;36.24
61870;BME280;47810;42.264;23.826;2023-03-21T13:28:27;93376.53;;;18.37;36.32
61870;BME280;47810;42.264;23.826;2023-03-21T13:31:05;93371.94;;;18.22;37.05
61870;BME280;47810;42.264;23.826;2023-03-21T13:33:39;93375.72;;;18.11;36.83
61870;BME280;47810;42.264;23.826;2023-03-21T13:36:11;93379.69;;;18.07;36.78
61870;BME280;47810;42.264;23.826;2023-03-21T13:38:38;93380.47;;;17.99;37.55
61870;BME280;47810;42.264;23.826;2023-03-21T13:46:14;93377.38;;;18.12;38.07
61870;BME280;47810;42.264;23.826;2023-03-21T13:52:02;93364.22;;;18.19;38.12
61870;BME280;47810;42.264;23.826;2023-03-21T14:01:39;93367.94;;;18.00;38.78
61870;BME280;47810;42.264;23.826;2023-03-21T14:04:12;93370.38;;;17.85;38.98
61870;BME280;47810;42.264;23.826;2023-03-21T14:09:03;93362.97;;;17.61;41.31
61870;BME280;47810;42.264;23.826;2023-03-21T14:11:30;93363.28;;;17.58;40.78
61870;BME280;47810;42.264;23.826;2023-03-21T14:13:57;93355.75;;;17.53;41.40
61870;BME280;47810;42.264;23.826;2023-03-21T14:16:24;93357.72;;;17.33;41.51
61870;BME280;47810;42.264;23.826;2023-03-21T14:18:54;93366.50;;;17.43;40.87
61870;BME280;47810;42.264;23.826;2023-03-21T14:21:27;93370.28;;;17.23;42.66
61870;BME280;47810;42.264;23.826;2023-03-21T14:26:23;93367.94;;;17.20;42.13
61870;BME280;47810;42.264;23.826;2023-03-21T14:28:50;93365.88;;;17.14;42.58
61870;BME280;47810;42.264;23.826;2023-03-21T14:31:17;93361.69;;;17.11;42.45
61870;BME280;47810;42.264;23.826;2023-03-21T14:33:47;93363.00;;;17.25;41.16
61870;BME280;47810;42.264;23.826;2023-03-21T14:36:17;93366.22;;;17.01;41.54
61870;BME280;47810;42.264;23.826;2023-03-21T14:38:51;93367.16;;;16.92;42.21
61870;BME280;47810;42.264;23.826;2023-03-21T14:41:20;93370.66;;;16.92;42.97
61870;BME280;47810;42.264;23.826;2023-03-21T14:43:59;93364.94;;;16.87;43.27
61870;BME280;47810;42.264;23.826;2023-03-21T14:46:25;93376.19;;;16.81;43.32
61870;BME280;47810;42.264;23.826;2023-03-21T14:48:51;93367.91;;;16.57;44.24
61870;BME280;47810;42.264;23.826;2023-03-21T14:51:16;93358.78;;;16.49;44.41
61870;BME280;47810;42.264;23.826;2023-03-21T14:53:42;93359.19;;;16.54;44.16
61870;BME280;47810;42.264;23.826;2023-03-21T14:56:29;93363.66;;;16.64;43.45
61870;BME280;47810;42.264;23.826;2023-03-21T14:58:54;93363.94;;;16.61;43.03